Have a Safe July 4th! 

Flight Track Log - Related Links

Times and Time Zones

All times are in EDT time to prevent confusion due to time zone crossing. See the EGF3675 flight status page for this flight to view local times or setup timezone preferences in your user account.

Time Position Orientation Groundspeed Altitude Reporting Facility
EDT Latitude Longitude Course Direction KTS MPH feet Rate Location/Type
Sun 07:22:40 PM 33.9336 -118.4397 48° Northeast 166 191 1,400  Level Los Angeles Center
Sun 07:23:42 PM 33.9161 -118.5139 254° West 214 246 3,100 1,887 Climbing Los Angeles Center
Sun 07:24:00 PM 34.1288 -118.0757 59° Northeast  Level FlightAware Approximate
Sun 07:24:44 PM 33.8586 -118.5547 211° Southwest 279 321 5,300  Level Los Angeles Center
Sun 07:25:00 PM 34.1969 -117.9396 59° Northeast  Level FlightAware Approximate
Sun 07:25:46 PM 33.8469 -118.4667 99° East 298 343 7,800  Level Los Angeles Center
Sun 07:26:00 PM 34.2666 -117.8168 68° East  Level FlightAware Approximate
Sun 07:26:48 PM 33.9153 -118.4344 21° North 283 326 10,100  Level Los Angeles Center
Sun 07:27:00 PM 34.3380 -117.6877 55° Northeast  Level FlightAware Approximate
Sun 07:27:50 PM 33.9692 -118.3689 45° Northeast 300 345 12,200  Level Los Angeles Center
Sun 07:28:00 PM 34.4140 -117.5702 48° Northeast  Level FlightAware Approximate
Sun 07:28:53 PM 34.0225 -118.2764 55° Northeast 317 365 13,300  Level Los Angeles Center
Sun 07:29:55 PM 34.0817 -118.1725 55° Northeast 369 425 14,700 1,403 Climbing Los Angeles Center
Sun 07:30:57 PM 34.1422 -118.0656 56° Northeast 383 441 16,200 1,548 Climbing Los Angeles Center
Sun 07:31:59 PM 34.2064 -117.9519 56° Northeast 404 465 17,900 1,355 Climbing Los Angeles Center
Sun 07:33:01 PM 34.2836 -117.8133 56° Northeast 413 475 19,000 919 Climbing Los Angeles Center
Sun 07:34:03 PM 34.3558 -117.6858 56° Northeast 452 520 19,800 484 Climbing Los Angeles Center
Sun 07:35:05 PM 34.4297 -117.5492 57° Northeast 462 532 20,000 97 Climbing Los Angeles Center
Sun 07:36:07 PM 34.4983 -117.4253 56° Northeast 448 516 20,000 97 Level Los Angeles Center
Sun 07:37:09 PM 34.5675 -117.2997 56° Northeast 449 517 20,200 629 Climbing Los Angeles Center
Sun 07:38:11 PM 34.6369 -117.1725 56° Northeast 454 522 21,300 1,104 Climbing Los Angeles Center
Sun 07:39:14 PM 34.7069 -117.0447 56° Northeast 457 526 22,500 1,152 Climbing Los Angeles Center
Sun 07:40:16 PM 34.7922 -116.8897 56° Northeast 463 533 23,700 1,016 Climbing Los Angeles Center
Sun 07:41:18 PM 34.8786 -116.7742 48° Northeast 463 533 24,600 823 Climbing Los Angeles Center
Sun 07:42:20 PM 34.9658 -116.6581 47° Northeast 468 539 25,400 774 Climbing Los Angeles Center
Sun 07:43:22 PM 35.0567 -116.5383 47° Northeast 477 549 26,200 774 Climbing Los Angeles Center
Sun 07:44:24 PM 35.1469 -116.4181 47° Northeast 481 554 27,000 823 Climbing Los Angeles Center
Sun 07:45:26 PM 35.2583 -116.2728 47° Northeast 487 560 27,900 823 Climbing Los Angeles Center
Sun 07:46:28 PM 35.3472 -116.1497 48° Northeast 486 559 28,700 774 Climbing Los Angeles Center
Sun 07:47:30 PM 35.4389 -116.0258 48° Northeast 489 563 29,500 774 Climbing Los Angeles Center
Sun 07:48:32 PM 35.5333 -115.9050 46° Northeast 493 567 30,300 677 Climbing Los Angeles Center
Sun 07:49:34 PM 35.6319 -115.7700 48° Northeast 492 566 30,900 528 Climbing Los Angeles Center
Sun 07:50:37 PM 35.7244 -115.6444 48° Northeast 496 571 31,400 480 Climbing Los Angeles Center
Sun 07:51:39 PM 35.8175 -115.5175 48° Northeast 499 574 31,900 774 Climbing Los Angeles Center
Sun 07:52:41 PM 35.9294 -115.3667 47° Northeast 500 575 33,000 532 Climbing Los Angeles Center
Sun 07:53:43 PM 36.0206 -115.2422 48° Northeast 495 570 33,000 145 Level Los Angeles Center
Sun 07:54:45 PM 36.1131 -115.1119 49° Northeast 505 581 33,300 484 Climbing Los Angeles Center
Sun 07:55:47 PM 36.2086 -114.9836 47° Northeast 511 588 34,000 823 Climbing Los Angeles Center
Sun 07:56:49 PM 36.3014 -114.8586 47° Northeast 500 575 35,000 484 Climbing Los Angeles Center
Sun 07:57:51 PM 36.3844 -114.6808 60° Northeast 510 587 35,000  Level Los Angeles Center
Sun 07:58:53 PM 36.4381 -114.5161 68° East 516 594 35,000  Level Los Angeles Center
Sun 07:59:56 PM 36.4928 -114.3503 68° East 518 596 35,000 432 Level Los Angeles Center
Sun 08:00:58 PM 36.5503 -114.1722 68° East 516 594 35,900 871 Climbing Los Angeles Center
Sun 08:02:00 PM 36.6028 -114.0119 68° East 504 580 36,800 532 Climbing Los Angeles Center
Sun 08:03:02 PM 36.6539 -113.8544 68° East 494 568 37,000 97 Climbing Los Angeles Center
Sun 08:04:04 PM 36.7050 -113.6947 68° East 498 573 37,000  Level Los Angeles Center
Sun 08:05:06 PM 36.7575 -113.5308 68° East 507 583 37,000  Level Los Angeles Center
Sun 08:06:08 PM 36.8200 -113.3314 69° East 516 594 37,000  Level Los Angeles Center
Sun 08:07:10 PM 36.8725 -113.1636 69° East 520 598 37,000  Level Los Angeles Center
Sun 08:08:12 PM 36.9258 -112.9944 68° East 525 604 37,000  Level Los Angeles Center
Sun 08:09:15 PM 36.9781 -112.8253 69° East 526 605 37,000  Level Los Angeles Center
Sun 08:10:17 PM 37.0306 -112.6558 69° East 526 605 37,000  Level Los Angeles Center
Sun 08:11:19 PM 37.0942 -112.4514 69° East 531 611 37,000  Level Los Angeles Center
Sun 08:12:21 PM 37.1458 -112.2808 69° East 529 609 37,000  Level Los Angeles Center
Sun 08:13:23 PM 37.1975 -112.1111 69° East 525 604 37,000  Level Los Angeles Center
Sun 08:14:25 PM 37.2481 -111.9422 69° East 523 602 37,000  Level Los Angeles Center
Sun 08:15:20 PM 37.2992 -111.7719 69° East 524 603 37,000  Level Denver Center
Sun 08:16:22 PM 37.3494 -111.5994 70° East 528 608 37,000  Level Denver Center
Sun 08:17:24 PM 37.4008 -111.4275 69° East 528 608 37,000  Level Denver Center
Sun 08:18:25 PM 37.4511 -111.2525 70° East 532 612 37,000  Level Denver Center
Sun 08:19:27 PM 37.5133 -111.0444 69° East 531 611 37,000  Level Denver Center
Sun 08:20:29 PM 37.5600 -110.8772 71° East 509 586 37,000  Level Denver Center
Sun 08:21:31 PM 37.6094 -110.7122 69° East 505 581 37,000  Level Denver Center
Sun 08:22:33 PM 37.6569 -110.5456 70° East 506 582 37,000  Level Denver Center
Sun 08:23:34 PM 37.7089 -110.3597 70° East 512 589 37,000  Level Denver Center
Sun 08:24:36 PM 37.7547 -110.1994 70° East 507 583 37,000  Level Denver Center
Sun 08:25:38 PM 37.8069 -110.0119 71° East 505 581 37,000  Level Denver Center
Sun 08:26:40 PM 37.8506 -109.8539 71° East 498 573 37,000  Level Denver Center
Sun 08:27:42 PM 37.8964 -109.6917 70° East 508 585 37,000  Level Denver Center
Sun 08:28:43 PM 37.9478 -109.5019 71° East 512 589 37,000  Level Denver Center
Sun 08:29:45 PM 37.9931 -109.3392 71° East 512 589 37,000  Level Denver Center
Sun 08:30:47 PM 38.0442 -109.1481 71° East 512 589 37,000  Level Denver Center
Sun 08:31:49 PM 38.0897 -108.9744 72° East 515 593 37,000  Level Denver Center
Sun 08:32:51 PM 38.1331 -108.8128 71° East 507 583 37,000  Level Denver Center
Sun 08:33:53 PM 38.1839 -108.6275 71° East 501 577 37,000  Level Denver Center
Sun 08:34:55 PM 38.2267 -108.4650 71° East 505 581 37,000  Level Denver Center
Sun 08:35:57 PM 38.2758 -108.2747 72° East 507 583 37,000  Level Denver Center
Sun 08:36:58 PM 38.3183 -108.1125 71° East 506 582 37,000  Level Denver Center
Sun 08:38:00 PM 38.3675 -107.9225 72° East 508 585 37,000  Level Denver Center
Sun 08:39:02 PM 38.4106 -107.7558 72° East 516 594 37,000  Level Denver Center
Sun 08:40:04 PM 38.4658 -107.5653 70° East 518 596 37,000 -677 Level Denver Center
Sun 08:41:06 PM 38.5322 -107.4150 61° Northeast 507 583 35,600 -1,403 Descending Denver Center
Sun 08:42:08 PM 38.6006 -107.2625 60° Northeast 515 593 34,100 -1,378 Descending Denver Center
Sun 08:43:21 PM 38.6803 -107.0858 60° Northeast 546 628 32,500 -1,500 Descending Denver Center
Sun 08:44:24 PM 38.7719 -106.8758 61° Northeast 562 647 30,700 -1,548 Descending Denver Center
Sun 08:45:25 PM 38.8478 -106.7056 60° Northeast 555 639 29,300 -1,610 Descending Denver Center
Sun 08:46:27 PM 38.9372 -106.5103 59° Northeast 513 590 27,400 -1,113 Descending Denver Center
Sun 08:47:29 PM 38.9989 -106.3739 60° Northeast 469 540 27,000 -484 Descending Denver Center
Sun 08:48:31 PM 39.0650 -106.2281 60° Northeast 487 560 26,400 -1,210 Descending Denver Center
Sun 08:49:33 PM 39.1353 -106.0722 60° Northeast 484 557 24,500 -1,610 Descending Denver Center
Sun 08:50:34 PM 39.1967 -105.9344 60° Northeast 447 514 23,100 -1,561 Descending Denver Center
Sun 08:51:36 PM 39.2678 -105.7706 61° Northeast 445 512 21,300 -1,645 Descending Denver Center
Sun 08:52:38 PM 39.3289 -105.6317 60° Northeast 441 507 19,700 -1,984 Descending Denver Center
Sun 08:53:40 PM 39.3864 -105.5000 61° Northeast 423 487 17,200 -1,839 Descending Denver Center
Sun 08:54:42 PM 39.4008 -105.3658 82° East 372 428 15,900 -1,065 Descending Denver Center
Sun 08:55:44 PM 39.4072 -105.2328 86° East 374 430 15,000 -976 Descending Denver Center
Sun 08:56:45 PM 39.4125 -105.0897 87° East 370 426 13,900 -976 Descending Denver Center
Sun 08:57:47 PM 39.4381 -104.9714 74° East 349 402 13,000 -435 Descending Denver Center
Sun 08:58:49 PM 39.4767 -104.8764 62° Northeast 293 337 13,000 -677 Level Denver Center
Sun 08:59:51 PM 39.5383 -104.7953 45° Northeast 298 343 11,600 -1,210 Descending Denver Center
Sun 09:00:53 PM 39.6039 -104.7461 30° Northeast 275 316 10,500 -1,065 Descending Denver Center

Login

Don't have an account? Register now (free) for customized features, flight alerts, and more!